Time;durP1;ratioP1;P1;durP2;ratioP2;P2;SDS_P1;SDS_P2;PMS_P1;PMS_P2;Temp;Humidity;BMP_temperature;BMP_pressure;BME280_temperature;BME280_humidity;BME280_pressure;Samples;Min_cycle;Max_cycle;Signal;HPM_P1;HPM_P2
2021/04/07 00:01:03;;;;;;;4.40;2.33;;;;;;;;;;6147815;23;20177;-91
2021/04/07 00:04:08;;;;;;;5.70;2.20;;;;;;;;;;6147805;23;20471;-90
2021/04/07 00:07:13;;;;;;;6.00;2.30;;;;;;;;;;6147874;23;20172;-92
2021/04/07 00:10:18;;;;;;;4.37;2.87;;;;;;;;;;6147731;23;20192;-90
2021/04/07 00:13:25;;;;;;;4.63;2.40;;;;;;;;;;6148379;23;20192;-91
2021/04/07 00:16:30;;;;;;;6.47;2.70;;;;;;;;;;6151151;23;20172;-89
2021/04/07 00:19:34;;;;;;;5.63;2.60;;;;;;;;;;6148570;23;20252;-89
2021/04/07 00:22:39;;;;;;;5.47;2.80;;;;;;;;;;6147699;23;20188;-88
2021/04/07 00:25:44;;;;;;;7.53;2.87;;;;;;;;;;6163119;23;20248;-88
2021/04/07 00:28:49;;;;;;;7.63;2.70;;;;;;;;;;6147093;23;20289;-89
2021/04/07 00:31:54;;;;;;;5.10;2.63;;;;;;;;;;6163980;23;20173;-90
2021/04/07 00:34:59;;;;;;;5.03;2.87;;;;;;;;;;6146403;23;20165;-90
2021/04/07 00:38:03;;;;;;;6.90;2.80;;;;;;;;;;6146906;23;20196;-88
2021/04/07 00:41:08;;;;;;;8.80;3.10;;;;;;;;;;6147773;23;20172;-89
2021/04/07 00:44:13;;;;;;;6.30;3.00;;;;;;;;;;6147646;23;20267;-92
2021/04/07 00:47:18;;;;;;;4.30;2.70;;;;;;;;;;6147961;23;20168;-89
2021/04/07 00:50:23;;;;;;;5.73;3.30;;;;;;;;;;6148631;23;20220;-89
2021/04/07 00:53:28;;;;;;;6.77;3.07;;;;;;;;;;6149671;23;20221;-90
2021/04/07 00:56:32;;;;;;;5.10;3.13;;;;;;;;;;6149268;23;20160;-90
2021/04/07 00:59:38;;;;;;;6.10;3.70;;;;;;;;;;6136706;23;20196;-89
2021/04/07 01:02:42;;;;;;;5.60;3.70;;;;;;;;;;6135528;23;20169;-89
2021/04/07 01:05:48;;;;;;;6.27;3.87;;;;;;;;;;6136978;23;20552;-90
2021/04/07 01:08:53;;;;;;;7.50;3.80;;;;;;;;;;6137940;23;20170;-90
2021/04/07 01:11:58;;;;;;;7.60;4.30;;;;;;;;;;6137618;23;20169;-90
2021/04/07 01:15:04;;;;;;;9.13;4.00;;;;;;;;;;6136893;23;20496;-89
2021/04/07 01:18:08;;;;;;;6.13;4.20;;;;;;;;;;6137279;23;20194;-90
2021/04/07 01:21:12;;;;;;;8.57;4.43;;;;;;;;;;6138668;23;20751;-90
2021/04/07 01:24:18;;;;;;;6.60;4.27;;;;;;;;;;6136313;23;20591;-90
2021/04/07 01:27:22;;;;;;;7.13;4.80;;;;;;;;;;6136864;23;20268;-92
2021/04/07 01:30:26;;;;;;;9.50;5.00;;;;;;;;;;6137893;23;20173;-90
2021/04/07 01:33:31;;;;;;;5.87;4.10;;;;;;;;;;6137543;23;20196;-90
2021/04/07 01:36:35;;;;;;;10.07;4.20;;;;;;;;;;6137363;23;20172;-91
2021/04/07 01:39:41;;;;;;;9.53;4.00;;;;;;;;;;6137161;23;20552;-90
2021/04/07 01:42:47;;;;;;;6.47;3.70;;;;;;;;;;6138626;23;20165;-90
2021/04/07 01:45:51;;;;;;;7.03;3.60;;;;;;;;;;6136266;23;20277;-90
2021/04/07 01:48:56;;;;;;;6.67;3.50;;;;;;;;;;6135235;23;20241;-90
2021/04/07 01:52:01;;;;;;;5.53;3.40;;;;;;;;;;6136539;23;20208;-90
2021/04/07 01:55:08;;;;;;;5.80;3.67;;;;;;;;;;6136014;23;20218;-91
2021/04/07 01:58:12;;;;;;;8.67;3.40;;;;;;;;;;6145203;23;20196;-89
2021/04/07 02:01:17;;;;;;;10.80;4.40;;;;;;;;;;6147959;23;20176;-88
2021/04/07 02:04:22;;;;;;;7.10;4.10;;;;;;;;;;6147246;23;20172;-89
2021/04/07 02:07:26;;;;;;;6.00;3.80;;;;;;;;;;6148622;23;20196;-92
2021/04/07 02:10:32;;;;;;;8.60;4.13;;;;;;;;;;6147816;23;20184;-88
2021/04/07 02:13:36;;;;;;;7.70;3.50;;;;;;;;;;6147231;23;20181;-88
2021/04/07 02:16:40;;;;;;;6.27;4.33;;;;;;;;;;6146430;23;20230;-89
2021/04/07 02:19:44;;;;;;;7.37;4.23;;;;;;;;;;6146741;23;20164;-90
2021/04/07 02:22:50;;;;;;;6.73;3.97;;;;;;;;;;6145946;23;20216;-89
2021/04/07 02:25:55;;;;;;;9.20;4.20;;;;;;;;;;6146138;23;20243;-89
2021/04/07 02:28:59;;;;;;;8.83;4.17;;;;;;;;;;6164673;23;20222;-90
2021/04/07 02:32:04;;;;;;;7.07;4.37;;;;;;;;;;6149328;23;20168;-90
2021/04/07 02:35:09;;;;;;;9.40;4.30;;;;;;;;;;6148977;23;20171;-90
2021/04/07 02:38:14;;;;;;;8.87;4.23;;;;;;;;;;6149848;23;20188;-90
2021/04/07 02:41:19;;;;;;;11.60;4.13;;;;;;;;;;6166487;23;20501;-88
2021/04/07 02:44:24;;;;;;;6.70;4.00;;;;;;;;;;6148350;23;20559;-89
2021/04/07 02:47:29;;;;;;;8.63;4.00;;;;;;;;;;6147981;23;20172;-90
2021/04/07 02:50:33;;;;;;;8.20;4.03;;;;;;;;;;6148051;23;20200;-90
2021/04/07 02:53:37;;;;;;;7.53;3.90;;;;;;;;;;6150838;23;20197;-89
2021/04/07 02:56:42;;;;;;;7.13;4.23;;;;;;;;;;6149195;23;20172;-89
2021/04/07 02:59:47;;;;;;;11.13;4.37;;;;;;;;;;6149790;23;20191;-89
2021/04/07 03:02:52;;;;;;;10.90;4.37;;;;;;;;;;6167737;23;20157;-88
2021/04/07 03:05:56;;;;;;;9.07;4.40;;;;;;;;;;6149743;23;20172;-89
2021/04/07 03:09:01;;;;;;;10.23;4.63;;;;;;;;;;6149950;23;20177;-91
2021/04/07 03:12:07;;;;;;;9.60;4.47;;;;;;;;;;6166650;23;20168;-89
2021/04/07 03:15:12;;;;;;;9.27;4.73;;;;;;;;;;6166144;23;20179;-89
2021/04/07 03:18:16;;;;;;;8.37;4.13;;;;;;;;;;6148943;23;20181;-89
2021/04/07 03:21:21;;;;;;;8.00;4.30;;;;;;;;;;6147673;23;20181;-89
2021/04/07 03:24:26;;;;;;;10.33;5.00;;;;;;;;;;6165351;23;20169;-88
2021/04/07 03:27:31;;;;;;;8.20;4.27;;;;;;;;;;6149083;23;20216;-89
2021/04/07 03:30:49;;;;;;;9.73;4.43;;;;;;;;;;6148439;23;20215;-89
2021/04/07 03:33:53;;;;;;;8.43;4.20;;;;;;;;;;6148874;23;20240;-90
2021/04/07 03:36:58;;;;;;;9.93;4.40;;;;;;;;;;6149460;23;20177;-88
2021/04/07 03:40:02;;;;;;;11.53;4.70;;;;;;;;;;6148784;23;20219;-89
2021/04/07 03:43:08;;;;;;;7.63;4.90;;;;;;;;;;6150490;23;20212;-89
2021/04/07 03:46:13;;;;;;;8.87;4.53;;;;;;;;;;6165833;23;20177;-90
2021/04/07 03:49:17;;;;;;;11.13;5.23;;;;;;;;;;6149331;23;20216;-88
2021/04/07 03:52:22;;;;;;;11.57;5.40;;;;;;;;;;6148845;23;20184;-90
2021/04/07 03:55:27;;;;;;;14.47;6.20;;;;;;;;;;6148934;23;20165;-91
2021/04/07 03:58:32;;;;;;;15.03;6.27;;;;;;;;;;6135731;23;20264;-89
2021/04/07 04:01:38;;;;;;;13.53;6.57;;;;;;;;;;6135754;23;20176;-89
2021/04/07 04:04:42;;;;;;;12.73;6.93;;;;;;;;;;6136019;23;20173;-89
2021/04/07 04:07:47;;;;;;;12.47;6.60;;;;;;;;;;6133627;23;20565;-89
2021/04/07 04:11:00;;;;;;;15.83;7.27;;;;;;;;;;6134607;23;20193;-88
2021/04/07 04:14:05;;;;;;;16.13;7.53;;;;;;;;;;6135057;23;20193;-87
2021/04/07 04:17:10;;;;;;;15.97;7.43;;;;;;;;;;6134358;23;20177;-88
2021/04/07 04:20:15;;;;;;;12.77;7.13;;;;;;;;;;6135538;23;20173;-89
2021/04/07 04:23:20;;;;;;;14.03;6.97;;;;;;;;;;6133487;23;20242;-87
2021/04/07 04:26:24;;;;;;;13.57;7.00;;;;;;;;;;6136789;23;20208;-89
2021/04/07 04:29:29;;;;;;;14.80;7.37;;;;;;;;;;6135677;23;20800;-87
2021/04/07 04:32:33;;;;;;;13.40;7.60;;;;;;;;;;6136115;23;20224;-88
2021/04/07 04:35:38;;;;;;;13.40;7.50;;;;;;;;;;6135025;23;20681;-88
2021/04/07 04:38:43;;;;;;;17.27;7.97;;;;;;;;;;6134673;23;20201;-90
2021/04/07 04:41:47;;;;;;;17.97;8.50;;;;;;;;;;6136920;23;20177;-87
2021/04/07 04:44:53;;;;;;;17.50;7.93;;;;;;;;;;6136211;23;20226;-90
2021/04/07 04:47:57;;;;;;;26.40;8.93;;;;;;;;;;6136220;23;20168;-90
2021/04/07 04:51:01;;;;;;;14.57;7.67;;;;;;;;;;6136853;23;20256;-88
2021/04/07 04:54:06;;;;;;;12.83;6.77;;;;;;;;;;6137014;23;20213;-93
2021/04/07 04:57:11;;;;;;;11.83;5.80;;;;;;;;;;6136337;23;20178;-85
2021/04/07 05:00:17;;;;;;;17.83;6.30;;;;;;;;;;6136845;23;20197;-89
2021/04/07 05:03:22;;;;;;;10.43;5.13;;;;;;;;;;6136206;23;20246;-87
2021/04/07 05:06:26;;;;;;;13.73;5.60;;;;;;;;;;6135154;23;20170;-88
2021/04/07 05:09:31;;;;;;;10.97;4.77;;;;;;;;;;6138859;23;20181;-88
2021/04/07 05:12:35;;;;;;;10.50;5.17;;;;;;;;;;6136163;23;20173;-90
2021/04/07 05:15:41;;;;;;;10.43;5.00;;;;;;;;;;6135976;23;20173;-88
2021/04/07 05:18:45;;;;;;;10.80;4.27;;;;;;;;;;6137508;23;20173;-88
2021/04/07 05:21:50;;;;;;;8.93;4.17;;;;;;;;;;6136685;23;20186;-88
2021/04/07 05:24:58;;;;;;;7.60;4.10;;;;;;;;;;6135778;23;20187;-90
2021/04/07 05:28:03;;;;;;;12.77;4.70;;;;;;;;;;6136491;23;20221;-88
2021/04/07 05:31:09;;;;;;;10.00;4.53;;;;;;;;;;6138751;23;20173;-89
2021/04/07 05:34:14;;;;;;;17.40;5.60;;;;;;;;;;6137921;23;20197;-88
2021/04/07 05:37:19;;;;;;;12.70;5.13;;;;;;;;;;6137357;23;20197;-89
2021/04/07 05:40:23;;;;;;;10.93;4.43;;;;;;;;;;6138428;23;20176;-88
2021/04/07 05:43:29;;;;;;;11.33;4.10;;;;;;;;;;6139238;23;20173;-87
2021/04/07 05:46:35;;;;;;;10.37;4.30;;;;;;;;;;6138311;23;20241;-88
2021/04/07 05:49:39;;;;;;;9.03;4.40;;;;;;;;;;6138789;23;20281;-87
2021/04/07 05:52:44;;;;;;;12.77;3.37;;;;;;;;;;6138379;23;20169;-89
2021/04/07 05:55:49;;;;;;;9.70;4.23;;;;;;;;;;6138977;23;20502;-89
2021/04/07 05:58:53;;;;;;;12.17;4.70;;;;;;;;;;6139602;23;20184;-89
2021/04/07 06:01:59;;;;;;;7.10;4.23;;;;;;;;;;6138349;23;20181;-88
2021/04/07 06:05:04;;;;;;;12.50;5.07;;;;;;;;;;6137745;23;20214;-89
2021/04/07 06:08:09;;;;;;;13.93;5.17;;;;;;;;;;6138543;23;20221;-89
2021/04/07 06:11:15;;;;;;;8.90;4.60;;;;;;;;;;6140390;23;20225;-87
2021/04/07 06:14:23;;;;;;;11.97;5.10;;;;;;;;;;6140258;23;20265;-90
2021/04/07 06:17:29;;;;;;;11.07;4.97;;;;;;;;;;6140213;23;20177;-90
2021/04/07 06:20:35;;;;;;;9.77;4.90;;;;;;;;;;6141186;23;20521;-90
2021/04/07 06:23:40;;;;;;;14.00;6.17;;;;;;;;;;6140087;23;20216;-89
2021/04/07 06:26:45;;;;;;;9.53;4.63;;;;;;;;;;6140381;23;20169;-89
2021/04/07 06:29:49;;;;;;;9.60;4.93;;;;;;;;;;6141267;23;20241;-89
2021/04/07 06:32:56;;;;;;;11.57;5.87;;;;;;;;;;6139694;23;20189;-89
2021/04/07 06:36:03;;;;;;;9.20;5.00;;;;;;;;;;6138672;23;20181;-89
2021/04/07 06:39:07;;;;;;;14.00;5.10;;;;;;;;;;6139014;23;20198;-90
2021/04/07 06:42:14;;;;;;;7.80;4.60;;;;;;;;;;6139128;23;20727;-89
2021/04/07 06:45:19;;;;;;;10.50;4.60;;;;;;;;;;6137832;23;20173;-90
2021/04/07 06:48:25;;;;;;;7.77;4.63;;;;;;;;;;6137666;23;20173;-89
2021/04/07 06:51:31;;;;;;;8.10;5.30;;;;;;;;;;6138569;23;20557;-88
2021/04/07 06:54:36;;;;;;;8.60;4.57;;;;;;;;;;6137195;23;20197;-90
2021/04/07 06:57:41;;;;;;;10.23;5.60;;;;;;;;;;6138407;23;20172;-89
2021/04/07 07:00:45;;;;;;;9.00;4.43;;;;;;;;;;6149424;23;20168;-89
2021/04/07 07:03:52;;;;;;;10.83;4.07;;;;;;;;;;6167316;23;20196;-90
2021/04/07 07:06:57;;;;;;;8.87;3.70;;;;;;;;;;6166716;23;20172;-89
2021/04/07 07:10:02;;;;;;;9.87;4.90;;;;;;;;;;6164914;23;20197;-89
2021/04/07 07:13:09;;;;;;;10.80;5.00;;;;;;;;;;6149268;23;20172;-89
2021/04/07 07:16:14;;;;;;;9.63;4.50;;;;;;;;;;6149095;23;20171;-92
2021/04/07 07:19:24;;;;;;;16.77;6.67;;;;;;;;;;6153362;23;20192;-91
2021/04/07 07:22:29;;;;;;;13.73;6.50;;;;;;;;;;6152504;23;20177;-89
2021/04/07 07:25:34;;;;;;;11.83;4.67;;;;;;;;;;6151986;23;20362;-88
2021/04/07 07:28:40;;;;;;;14.13;6.80;;;;;;;;;;6151180;23;20172;-90
2021/04/07 07:31:54;;;;;;;11.13;5.53;;;;;;;;;;6154122;23;20180;-90
2021/04/07 07:38:44;;;;;;;9.40;4.50;;;;;;;;;;6159722;23;20237;-89
2021/04/07 07:41:51;;;;;;;10.60;4.80;;;;;;;;;;6160275;23;20185;-91
2021/04/07 22:02:33;;;;;;;6.03;3.70;;;;;;;;;;6223384;22;20204;-90
2021/04/07 22:05:38;;;;;;;5.40;3.07;;;;;;;;;;6207363;23;20238;-91
2021/04/07 22:08:43;;;;;;;6.07;3.30;;;;;;;;;;6205805;23;20210;-91
2021/04/07 22:11:48;;;;;;;5.13;3.07;;;;;;;;;;6207397;23;20155;-92
2021/04/07 22:14:52;;;;;;;5.33;3.30;;;;;;;;;;6207104;23;20194;-92
2021/04/07 22:17:57;;;;;;;8.93;4.57;;;;;;;;;;6206863;23;20506;-92
2021/04/07 22:21:04;;;;;;;7.13;3.93;;;;;;;;;;6205493;23;20239;-92
2021/04/07 22:24:09;;;;;;;6.67;3.97;;;;;;;;;;6206496;23;20220;-90
2021/04/07 22:27:13;;;;;;;10.37;4.80;;;;;;;;;;6206732;23;20172;-90
2021/04/07 22:30:19;;;;;;;6.50;4.10;;;;;;;;;;6207063;23;20214;-92
2021/04/07 22:33:26;;;;;;;8.43;4.30;;;;;;;;;;6206148;23;20248;-92
2021/04/07 22:36:31;;;;;;;9.80;4.53;;;;;;;;;;6206759;23;20175;-92
2021/04/07 22:39:36;;;;;;;8.67;4.77;;;;;;;;;;6208869;23;20250;-91
2021/04/07 22:42:42;;;;;;;6.47;4.07;;;;;;;;;;6206078;23;20510;-91
2021/04/07 22:45:47;;;;;;;6.93;4.37;;;;;;;;;;6206270;23;20163;-90
2021/04/07 22:48:52;;;;;;;6.07;4.23;;;;;;;;;;6207306;23;20250;-92
2021/04/07 22:51:56;;;;;;;7.40;4.37;;;;;;;;;;6207361;23;20726;-91
2021/04/07 22:55:00;;;;;;;14.07;5.00;;;;;;;;;;6205986;23;20194;-90
2021/04/07 22:58:05;;;;;;;8.30;4.70;;;;;;;;;;6207100;23;20206;-92
2021/04/07 23:01:10;;;;;;;11.60;5.30;;;;;;;;;;6206914;23;20195;-91
2021/04/07 23:04:15;;;;;;;10.27;5.17;;;;;;;;;;6205280;23;20167;-89
2021/04/07 23:07:19;;;;;;;9.40;5.60;;;;;;;;;;6205897;23;20619;-91
2021/04/07 23:10:24;;;;;;;9.10;6.10;;;;;;;;;;6206526;23;20504;-90
2021/04/07 23:13:28;;;;;;;10.77;6.40;;;;;;;;;;6206802;23;20151;-91
2021/04/07 23:16:32;;;;;;;9.23;6.00;;;;;;;;;;6205690;23;20171;-91
2021/04/07 23:19:38;;;;;;;10.83;6.80;;;;;;;;;;6224524;23;20224;-90
2021/04/07 23:22:43;;;;;;;13.47;6.93;;;;;;;;;;6204892;23;20230;-90
2021/04/07 23:25:47;;;;;;;16.57;7.17;;;;;;;;;;6204614;23;20252;-90
2021/04/07 23:28:52;;;;;;;13.90;6.90;;;;;;;;;;6207002;23;20175;-91
2021/04/07 23:31:57;;;;;;;14.17;7.17;;;;;;;;;;6207286;23;20694;-91
2021/04/07 23:35:02;;;;;;;11.57;6.60;;;;;;;;;;6207000;23;20534;-90
2021/04/07 23:38:06;;;;;;;13.50;6.87;;;;;;;;;;6205718;23;20174;-90
2021/04/07 23:41:12;;;;;;;10.60;6.67;;;;;;;;;;6206814;23;20186;-92
2021/04/07 23:44:16;;;;;;;11.60;6.40;;;;;;;;;;6207576;23;20167;-90
2021/04/07 23:47:21;;;;;;;13.60;6.83;;;;;;;;;;6206783;23;20175;-91
2021/04/07 23:50:26;;;;;;;9.90;6.73;;;;;;;;;;6205910;23;20231;-91
2021/04/07 23:53:31;;;;;;;11.97;6.17;;;;;;;;;;6206256;23;20198;-91
2021/04/07 23:56:35;;;;;;;11.77;5.40;;;;;;;;;;6207379;23;20611;-91
2021/04/07 23:59:40;;;;;;;11.00;6.07;;;;;;;;;;6206877;23;20250;-92
